Sitc Xiamen — 3ELU — position and weather

sailwx.info

Track history (hours):
 
Tides and Currents Weather Stations Pressure Air Temp Water Temp Dewpoint Dewpoint Depression Visibility Wind Speed Wind Dir Waves Ship Positions

Sitc Xiamen

Last reported at 2014-Oct-21 00:31 UTC. Time now 2014-Oct-21 19:59 UTC.
Position N 31°23' E 123°09'.

Length 145 m; draft 7.9 m.

Type: Ship (hazmat cat A). MMSI: 355090000.

Date/timePositionNaut miles runAvg speedWind from/ knotsBaromVisibWave heightAir tempDewpointWater temp
2014-Oct-21 00:31N 31°23' E 123°09'3114.7
2014-Oct-20 22:23N 31°06' E 122°38'1011.5
2014-Oct-20 21:32N 31°06' E 122°27'1312.6
2014-Oct-20 20:31N 31°10' E 122°12'1313.6
2014-Oct-20 19:33N 31°15' E 121°58'1514.3
2014-Oct-20 18:32N 31°20' E 121°42'3 0.8
2014-Oct-20 15:04N 31°20' E 121°39'0 0.0
2014-Oct-20 14:28N 31°20' E 121°39'0 0.0
2014-Oct-20 13:28N 31°20' E 121°39'0 0.0
2014-Oct-20 12:28N 31°20' E 121°39'0 0.0
2014-Oct-20 11:28N 31°20' E 121°39'0 0.0
2014-Oct-20 10:28N 31°20' E 121°39'0 0.0
2014-Oct-20 05:10N 31°20' E 121°39'1 1.3
2014-Oct-20 04:29N 31°20' E 121°40'2613.1
2014-Oct-20 02:29N 31°04' E 122°04'1312.5
2014-Oct-20 01:25N 31°03' E 122°20'  
2014-Oct-17 14:14N 33°40' E 129°50'914.0
2014-Oct-17 13:33N 33°44' E 130°00'1514.4
2014-Oct-17 12:32N 33°52' E 130°15'19 0.6
2014-Oct-16 06:16N 34°01' E 130°36'1014.7
2014-Oct-16 05:33N 33°56' E 130°25'1414.1
2014-Oct-16 04:33N 33°44' E 130°17'8 7.5
2014-Oct-16 03:33N 33°39' E 130°24'0 0.0
2014-Oct-16 02:32N 33°39' E 130°24'0 0.0
2014-Oct-16 01:32N 33°39' E 130°24'0 0.0
2014-Oct-16 00:32N 33°39' E 130°24'0 0.0
2014-Oct-15 23:32N 33°39' E 130°24'0 0.0
2014-Oct-15 22:32N 33°39' E 130°24'0 0.0
2014-Oct-15 21:32N 33°39' E 130°24'0 0.0
2014-Oct-15 20:32N 33°39' E 130°24'0 0.0
2014-Oct-15 19:32N 33°39' E 130°24'9 9.0
2014-Oct-15 18:33N 33°44' E 130°15'1514.2
2014-Oct-15 17:30N 33°50' E 129°59'48513.1
2014-Oct-14 04:32N 38°45' E 122°01'7 0.2
2014-Oct-12 07:06N 38°52' E 121°57'1012.5
2014-Oct-12 06:19N 38°43' E 121°53'1012.7
2014-Oct-12 05:32N 38°33' E 121°50'3812.8
2014-Oct-12 02:33N 37°56' E 121°38'1313.0
2014-Oct-12 01:33N 37°44' E 121°31'1110.9
2014-Oct-12 00:33N 37°35' E 121°25'1 1.5
2014-Oct-11 23:33N 37°35' E 121°23'0 0.0
2014-Oct-11 22:33N 37°35' E 121°23'0 0.0
2014-Oct-11 21:33N 37°35' E 121°23'0 0.0
2014-Oct-11 20:30N 37°35' E 121°23'0 0.0
2014-Oct-11 19:30N 37°35' E 121°23'0 0.0
2014-Oct-11 18:33N 37°35' E 121°23'0 0.0
2014-Oct-11 17:33N 37°35' E 121°23'0 0.0
2014-Oct-11 16:30N 37°35' E 121°23'0 0.0
2014-Oct-11 15:30N 37°35' E 121°23'0 0.0
2014-Oct-11 14:33N 37°35' E 121°23'0 0.0
2014-Oct-11 13:30N 37°35' E 121°23'0 0.0
2014-Oct-11 12:33N 37°35' E 121°23'3 3.4
2014-Oct-11 11:33N 37°36' E 121°27'8 8.3
2014-Oct-11 10:34N 37°43' E 121°21'1515.2
2014-Oct-11 09:34N 37°53' E 121°07'  
Track history (hours):
 
Tides and Currents Weather Stations Pressure Air Temp Water Temp Dewpoint Dewpoint Depression Visibility Wind Speed Wind Dir Waves Ship Positions

Sitc Xiamen

Last reported at 2014-Oct-21 00:31 UTC. Time now 2014-Oct-21 19:59 UTC.
Position N 31°23' E 123°09'.

Length 145 m; draft 7.9 m.

Type: Ship (hazmat cat A). MMSI: 355090000.

Date/timePositionNaut miles runAvg speedWind from/ knotsBaromVisibWave heightAir tempDewpointWater temp
2014-Oct-21 00:31N 31°23' E 123°09'3114.7
2014-Oct-20 22:23N 31°06' E 122°38'1011.5
2014-Oct-20 21:32N 31°06' E 122°27'1312.6
2014-Oct-20 20:31N 31°10' E 122°12'1313.6
2014-Oct-20 19:33N 31°15' E 121°58'1514.3
2014-Oct-20 18:32N 31°20' E 121°42'3 0.8
2014-Oct-20 15:04N 31°20' E 121°39'0 0.0
2014-Oct-20 14:28N 31°20' E 121°39'0 0.0
2014-Oct-20 13:28N 31°20' E 121°39'0 0.0
2014-Oct-20 12:28N 31°20' E 121°39'0 0.0
2014-Oct-20 11:28N 31°20' E 121°39'0 0.0
2014-Oct-20 10:28N 31°20' E 121°39'0 0.0
2014-Oct-20 05:10N 31°20' E 121°39'1 1.3
2014-Oct-20 04:29N 31°20' E 121°40'2613.1
2014-Oct-20 02:29N 31°04' E 122°04'1312.5
2014-Oct-20 01:25N 31°03' E 122°20'  
2014-Oct-17 14:14N 33°40' E 129°50'914.0
2014-Oct-17 13:33N 33°44' E 130°00'1514.4
2014-Oct-17 12:32N 33°52' E 130°15'19 0.6
2014-Oct-16 06:16N 34°01' E 130°36'1014.7
2014-Oct-16 05:33N 33°56' E 130°25'1414.1
2014-Oct-16 04:33N 33°44' E 130°17'8 7.5
2014-Oct-16 03:33N 33°39' E 130°24'0 0.0
2014-Oct-16 02:32N 33°39' E 130°24'0 0.0
2014-Oct-16 01:32N 33°39' E 130°24'0 0.0
2014-Oct-16 00:32N 33°39' E 130°24'0 0.0
2014-Oct-15 23:32N 33°39' E 130°24'0 0.0
2014-Oct-15 22:32N 33°39' E 130°24'0 0.0
2014-Oct-15 21:32N 33°39' E 130°24'0 0.0
2014-Oct-15 20:32N 33°39' E 130°24'0 0.0
2014-Oct-15 19:32N 33°39' E 130°24'9 9.0
2014-Oct-15 18:33N 33°44' E 130°15'1514.2
2014-Oct-15 17:30N 33°50' E 129°59'48513.1
2014-Oct-14 04:32N 38°45' E 122°01'7 0.2
2014-Oct-12 07:06N 38°52' E 121°57'1012.5
2014-Oct-12 06:19N 38°43' E 121°53'1012.7
2014-Oct-12 05:32N 38°33' E 121°50'3812.8
2014-Oct-12 02:33N 37°56' E 121°38'1313.0
2014-Oct-12 01:33N 37°44' E 121°31'1110.9
2014-Oct-12 00:33N 37°35' E 121°25'1 1.5
2014-Oct-11 23:33N 37°35' E 121°23'0 0.0
2014-Oct-11 22:33N 37°35' E 121°23'0 0.0
2014-Oct-11 21:33N 37°35' E 121°23'0 0.0
2014-Oct-11 20:30N 37°35' E 121°23'0 0.0
2014-Oct-11 19:30N 37°35' E 121°23'0 0.0
2014-Oct-11 18:33N 37°35' E 121°23'0 0.0
2014-Oct-11 17:33N 37°35' E 121°23'0 0.0
2014-Oct-11 16:30N 37°35' E 121°23'0 0.0
2014-Oct-11 15:30N 37°35' E 121°23'0 0.0
2014-Oct-11 14:33N 37°35' E 121°23'0 0.0
2014-Oct-11 13:30N 37°35' E 121°23'0 0.0
2014-Oct-11 12:33N 37°35' E 121°23'3 3.4
2014-Oct-11 11:33N 37°36' E 121°27'8 8.3
2014-Oct-11 10:34N 37°43' E 121°21'1515.2
2014-Oct-11 09:34N 37°53' E 121°07'  

Dump ship's entire track history